METAR Reports

Area Airport Weather Conditions

KBDL - Windsor Locks, Connecticut, USA
Distance from station: NE 45mi, 72km
Updated: 5:51AM EST, November 18, 2018
Overcast
Overcast
 Wind from NW
Wind: NW 8 mph , 13 km/h
Temperature: 34°F , 1°C
Wind Chill: 27°F , -3°C
Dew Point: 19°F , -7°C
Humidity: 56%
Barometer: 30.34 inHg , 1027.4 hPa
Clouds: Overcast
Visibility: 10 miles , 16 km
Cloud details: Few Clouds 12000 ft
Mostly cloudy 14000 ft
Overcast 19000 ft
2018/11/18 10:51 KBDL 181051Z 32007KT 10SM FEW120 BKN140 OVC190 01/M07 A3034 RMK AO2 SLP277 T00111072
KDXR - Danbury, Connecticut, USA
Distance from station: SSW 15mi, 24km
Updated: 4:53AM EST, November 18, 2018
Partly cloudy
Partly cloudy
 Wind from calm
Wind: Calm
Temperature: 32°F , 0°C
Dew Point: 28°F , -2°C
Humidity: 87%
Barometer: 30.33 inHg , 1027.1 hPa
Clouds: Partly cloudy
Visibility: 10 miles , 16 km
Cloud details: Partly cloudy 12000 ft
2018/11/18 09:53 KDXR 180953Z AUTO 00000KT 10SM SCT120 00/M02 A3033 RMK AO2 SLP275 T00001022
 
KOXC - Oxford/Waterbury, Connecticut, USA
Distance from station: ESE 16mi, 26km
Updated: 5:51AM EST, November 18, 2018
Overcast
Overcast
 Wind from calm
Wind: Calm
Temperature: 34°F , 1°C
Dew Point: 25°F , -4°C
Humidity: 70%
Barometer: 30.31 inHg , 1026.4 hPa
Clouds: Overcast
Visibility: 10 miles , 16 km
Cloud details: Overcast 11000 ft
2018/11/18 10:51 KOXC 181051Z AUTO 00000KT 10SM OVC110 01/M04 A3031 RMK AO2 SLP283 T00061044 FZRANO
KPOU - Poughkeepsie, New York, USA
Distance from station: W 25mi, 40km
Updated: 4:53AM EST, November 18, 2018
Partly cloudy
Partly cloudy
 Wind from ESE
Wind: ESE 3 mph , 6 km/h
Temperature: 30°F , -1°C
Dew Point: 27°F , -3°C
Humidity: 86%
Barometer: 30.32 inHg , 1026.8 hPa
Clouds: Partly cloudy
Visibility: 10 miles , 16 km
Cloud details: Partly cloudy 4200 ft
2018/11/18 09:53 KPOU 180953Z 11003KT 10SM SCT042 M01/M03 A3032 RMK AO2 SLP265 T10111033
 
KMMK - Meriden, Connecticut, USA
Distance from station: E 30mi, 48km
Updated: 4:53AM EST, November 18, 2018
Mostly cloudy
Mostly cloudy
 Wind from calm
Wind: Calm
Temperature: 32°F , 0°C
Dew Point: 28°F , -2°C
Humidity: 87%
Barometer: 30.33 inHg , 1027.1 hPa
Clouds: Mostly cloudy
Visibility: 10 miles , 16 km
Cloud details: Mostly cloudy 4500 ft
2018/11/18 09:53 KMMK 180953Z AUTO 00000KT 10SM BKN045 00/M02 A3033 RMK AO2 SLP273 T00001017 $
KBDR - Bridgeport, Connecticut, USA
Distance from station: SSE 32mi, 51km
Updated: 5:52AM EST, November 18, 2018
Few Clouds
Few Clouds
 Wind from NNW
Wind: NNW 3 mph , 6 km/h
Temperature: 37°F , 3°C
Dew Point: 27°F , -3°C
Humidity: 65%
Barometer: 30.34 inHg , 1027.4 hPa
Clouds: Few Clouds
Visibility: 10 miles , 16 km
Cloud details: Few Clouds 11000 ft
2018/11/18 10:52 KBDR 181052Z AUTO 34003KT 10SM FEW110 03/M03 A3034 RMK AO2 SLP273 T00331033
 
KHVN - New Haven/Tweed, Connecticut, USA
Distance from station: SE 35mi, 57km
Updated: 4:53AM EST, November 18, 2018
Clear
Clear
 Wind from NNW
Wind: NNW 5 mph , 7 km/h
Temperature: 39°F , 4°C
Wind Chill: 35°F , 2°C
Dew Point: 27°F , -3°C
Humidity: 61%
Barometer: 30.33 inHg , 1027.1 hPa
Clouds: Clear
Visibility: 10 miles , 16 km
2018/11/18 09:53 KHVN 180953Z AUTO 34004KT 10SM CLR 04/M03 A3033 RMK AO2 SLP271 T00441028
KSWF - Newburgh/Stewart, New York, USA
Distance from station: W 35mi, 57km
Updated: 5:45AM EST, November 18, 2018
Mostly cloudy
Mostly cloudy
 Wind from NW
Wind: NW 7 mph , 11 km/h
Temperature: 34°F , 1°C
Wind Chill: 28°F , -2°C
Dew Point: 25°F , -4°C
Humidity: 70%
Barometer: 30.35 inHg , 1027.8 hPa
Clouds: Mostly cloudy
Visibility: 10 miles , 16 km
Cloud details: Mostly cloudy 5000 ft
2018/11/18 10:45 KSWF 181045Z 31006KT 10SM BKN050 01/M04 A3035
 
KHPN - White Plains, New York, USA
Distance from station: SSW 38mi, 62km
Updated: 4:56AM EST, November 18, 2018
Mostly cloudy
Mostly cloudy
 Wind from NNW
Wind: NNW 8 mph , 13 km/h
Temperature: 36°F , 2°C
Wind Chill: 30°F , -1°C
Dew Point: 25°F , -4°C
Humidity: 65%
Barometer: 30.31 inHg , 1026.4 hPa
Clouds: Mostly cloudy
Visibility: 10 miles , 16 km
Cloud details: Mostly cloudy 10000 ft
2018/11/18 09:56 KHPN 180956Z 34007KT 10SM BKN100 02/M04 A3031 RMK AO2 SLP269 T00221044 $
KHFD - Hartford/Brainar, Connecticut, USA
Distance from station: ENE 41mi, 65km
Updated: 4:53AM EST, November 18, 2018
Overcast
Overcast
 Wind from N
Wind: N 5 mph , 7 km/h
Temperature: 37°F , 3°C
Wind Chill: 33°F , 1°C
Dew Point: 23°F , -5°C
Humidity: 56%
Barometer: 30.34 inHg , 1027.4 hPa
Clouds: Overcast
Visibility: 10 miles , 16 km
Cloud details: Overcast 4100 ft
2018/11/18 09:53 KHFD 180953Z AUTO 35004KT 10SM OVC041 03/M05 A3034 RMK AO2 SLP273 T00331050